Time;durP1;ratioP1;P1;durP2;ratioP2;P2;SDS_P1;SDS_P2;PMS_P1;PMS_P2;Temp;Humidity;BMP_temperature;BMP_pressure;BME280_temperature;BME280_humidity;BME280_pressure;Samples;Min_cycle;Max_cycle;Signal;HPM_P1;HPM_P2
2022/05/16 00:00:19;;;;;;;18.20;12.25;;;13.70;99.90;;;;;;4951840;28;20020;-78
2022/05/16 00:02:45;;;;;;;19.50;11.60;;;13.50;99.90;;;;;;4952125;28;20123;-77
2022/05/16 00:05:11;;;;;;;15.98;11.07;;;13.50;99.90;;;;;;4953265;28;20524;-77
2022/05/16 00:07:37;;;;;;;16.83;12.18;;;13.40;99.90;;;;;;4953369;28;20031;-76
2022/05/16 00:10:03;;;;;;;16.67;11.07;;;13.40;99.90;;;;;;4953137;28;20031;-77
2022/05/16 00:12:29;;;;;;;14.20;9.85;;;13.40;99.90;;;;;;4952304;28;20023;-77
2022/05/16 00:14:55;;;;;;;16.13;10.77;;;13.40;99.90;;;;;;4952266;28;20098;-77
2022/05/16 00:17:21;;;;;;;19.25;11.45;;;13.30;99.90;;;;;;4952815;28;20440;-76
2022/05/16 00:19:46;;;;;;;17.45;10.93;;;13.20;99.90;;;;;;4952653;28;20031;-76
2022/05/16 00:22:12;;;;;;;15.27;10.13;;;13.20;99.90;;;;;;4953294;28;20111;-77
2022/05/16 00:24:43;;;;;;;13.90;9.75;;;13.20;99.90;;;;;;4952644;28;20015;-77
2022/05/16 00:27:10;;;;;;;15.45;9.15;;;13.20;99.90;;;;;;4953290;28;20023;-77
2022/05/16 00:29:37;;;;;;;19.23;9.70;;;13.20;99.90;;;;;;4952194;28;20532;-77
2022/05/16 00:32:04;;;;;;;17.85;9.45;;;13.20;99.90;;;;;;4953363;28;20023;-77
2022/05/16 00:34:29;;;;;;;15.23;9.60;;;13.10;99.90;;;;;;4952669;28;20016;-77
2022/05/16 00:36:55;;;;;;;13.57;8.63;;;13.10;99.90;;;;;;4935918;29;20032;-77
2022/05/16 00:39:21;;;;;;;15.57;8.38;;;13.10;99.90;;;;;;4952863;28;20051;-77
2022/05/16 00:41:49;;;;;;;13.65;7.47;;;13.10;99.90;;;;;;4967133;23;20118;-89
2022/05/16 00:44:15;;;;;;;12.40;8.05;;;13.10;99.90;;;;;;4940933;28;20512;-89
2022/05/16 00:46:41;;;;;;;17.70;8.90;;;13.00;99.90;;;;;;4937869;29;20109;-89
2022/05/16 00:49:13;;;;;;;12.68;7.50;;;13.00;99.90;;;;;;4957780;28;20102;-90
2022/05/16 00:51:47;;;;;;;;;;;13.10;99.90;;;;;;4940758;29;20480;-89
2022/05/16 00:54:19;;;;;;;11.35;7.57;;;13.20;99.90;;;;;;4956853;28;19914;-90
2022/05/16 00:56:46;;;;;;;10.82;8.15;;;13.20;99.90;;;;;;4932575;28;20106;-90
2022/05/16 00:59:12;;;;;;;14.75;7.85;;;13.10;99.90;;;;;;4938739;29;20020;-90
2022/05/16 01:07:09;;;;;;;10.48;8.07;;;13.10;99.90;;;;;;4956988;28;20454;-90
2022/05/16 01:09:35;;;;;;;14.20;7.90;;;13.10;99.90;;;;;;4957126;28;20031;-91
2022/05/16 01:12:02;;;;;;;9.77;7.47;;;13.10;99.90;;;;;;4939154;29;20027;-89
2022/05/16 01:14:52;;;;;;;10.88;7.38;;;13.10;99.90;;;;;;4939675;29;20023;-91
2022/05/16 01:17:19;;;;;;;8.63;6.72;;;13.00;99.90;;;;;;4939432;29;20505;-91
2022/05/16 01:19:45;;;;;;;10.00;6.43;;;13.00;99.90;;;;;;4939768;29;20039;-95
2022/05/16 01:22:22;;;;;;;10.30;6.57;;;13.00;99.90;;;;;;4941195;29;20033;-94
2022/05/16 01:24:47;;;;;;;11.60;6.85;;;13.00;99.90;;;;;;4941531;29;20054;-95
2022/05/16 01:27:13;;;;;;;9.85;6.95;;;13.10;99.90;;;;;;4957370;29;20051;-92
2022/05/16 01:29:39;;;;;;;9.70;7.32;;;13.10;99.90;;;;;;4957480;29;20073;-92
2022/05/16 01:32:05;;;;;;;9.70;6.85;;;13.20;99.90;;;;;;4957166;29;20019;-93
2022/05/16 01:34:31;;;;;;;9.43;6.78;;;13.20;99.90;;;;;;4957583;29;20097;-89
2022/05/16 01:36:57;;;;;;;14.07;7.72;;;13.10;99.90;;;;;;4955976;29;20039;-90
2022/05/16 01:39:22;;;;;;;12.80;7.15;;;13.20;99.90;;;;;;4955873;29;20090;-88
2022/05/16 01:41:48;;;;;;;9.57;7.07;;;13.20;99.90;;;;;;4976616;22;20039;-78
2022/05/16 01:44:14;;;;;;;11.15;6.63;;;13.30;99.90;;;;;;4955761;28;20023;-77
2022/05/16 01:46:40;;;;;;;11.60;6.75;;;13.30;99.90;;;;;;4956163;28;20034;-78
2022/05/16 01:49:09;;;;;;;7.68;4.75;;;13.40;99.90;;;;;;4956077;28;20030;-74
2022/05/16 01:51:35;;;;;;;11.50;6.20;;;13.50;99.90;;;;;;4956053;28;20068;-75
2022/05/16 01:54:03;;;;;;;8.25;5.65;;;13.50;99.90;;;;;;4956149;28;20011;-78
2022/05/16 01:56:31;;;;;;;8.05;5.72;;;13.40;99.90;;;;;;4955826;28;20038;-78
2022/05/16 01:58:58;;;;;;;7.10;5.40;;;13.40;99.90;;;;;;4955088;28;20392;-78
2022/05/16 02:01:24;;;;;;;7.38;5.70;;;13.30;99.90;;;;;;4955588;28;20019;-78
2022/05/16 02:03:50;;;;;;;7.63;5.30;;;13.20;99.90;;;;;;4955892;28;20027;-78
2022/05/16 02:06:16;;;;;;;7.65;4.90;;;13.20;99.90;;;;;;4938726;28;20535;-77
2022/05/16 02:08:43;;;;;;;8.18;5.22;;;13.20;99.90;;;;;;4955673;28;20425;-77
2022/05/16 02:11:09;;;;;;;8.68;5.15;;;13.10;99.90;;;;;;4955790;28;20019;-77
2022/05/16 02:13:37;;;;;;;8.13;5.05;;;13.10;99.90;;;;;;4955652;28;20026;-77
2022/05/16 02:16:02;;;;;;;7.75;5.25;;;13.10;99.90;;;;;;4955519;28;20059;-77
2022/05/16 02:18:29;;;;;;;9.23;6.30;;;13.00;99.90;;;;;;4938443;28;20105;-77
2022/05/16 02:24:38;;;;;;;10.80;5.60;;;13.00;99.90;;;;;;4955654;28;20020;-77
2022/05/16 02:26:25;;;;;;;8.77;6.03;;;13.00;99.90;;;;;;4955762;28;20071;-78
2022/05/16 02:28:51;;;;;;;8.25;5.90;;;13.00;99.90;;;;;;4955310;28;20043;-78
2022/05/16 02:31:19;;;;;;;13.00;5.97;;;12.90;99.90;;;;;;4955240;28;20034;-78
2022/05/16 02:33:46;;;;;;;15.50;6.43;;;12.90;99.90;;;;;;4955623;28;20027;-78
2022/05/16 02:36:11;;;;;;;9.73;6.35;;;12.90;99.90;;;;;;4955399;28;20063;-78
2022/05/16 02:38:37;;;;;;;10.55;6.28;;;13.00;99.90;;;;;;4955377;28;20030;-78
2022/05/16 02:41:03;;;;;;;10.82;6.53;;;13.00;99.90;;;;;;4955349;28;20070;-78
2022/05/16 02:43:29;;;;;;;12.50;6.75;;;12.90;99.90;;;;;;4989875;23;20039;-90
2022/05/16 02:45:54;;;;;;;14.10;7.95;;;12.90;99.90;;;;;;4975787;28;20023;-90
2022/05/16 02:48:20;;;;;;;10.93;7.07;;;12.80;99.90;;;;;;4958265;28;20476;-89
2022/05/16 02:50:46;;;;;;;9.90;6.88;;;12.80;99.90;;;;;;4959650;28;20030;-90
2022/05/16 02:53:12;;;;;;;8.30;5.15;;;12.80;99.90;;;;;;4963256;28;20125;-89
2022/05/16 02:55:38;;;;;;;8.48;6.28;;;12.70;99.90;;;;;;4964157;28;20468;-90
2022/05/16 02:58:07;;;;;;;10.45;5.95;;;12.60;99.90;;;;;;4957711;28;20038;-89
2022/05/16 03:00:33;;;;;;;9.52;5.60;;;12.60;99.90;;;;;;4956667;28;20110;-90
2022/05/16 03:02:59;;;;;;;9.60;5.90;;;12.60;99.90;;;;;;4957656;28;20466;-90
2022/05/16 03:05:25;;;;;;;9.18;5.65;;;12.60;99.90;;;;;;4957621;28;20023;-90
2022/05/16 03:07:51;;;;;;;8.40;5.28;;;12.70;99.90;;;;;;4974112;28;20018;-88
2022/05/16 03:10:17;;;;;;;9.90;5.70;;;12.60;99.90;;;;;;4957658;28;20057;-90
2022/05/16 03:12:44;;;;;;;7.95;4.90;;;12.60;99.90;;;;;;4959626;28;20153;-90
2022/05/16 03:15:11;;;;;;;6.35;4.30;;;12.70;99.90;;;;;;4979032;28;20023;-91
2022/05/16 03:17:37;;;;;;;9.32;4.82;;;12.80;99.90;;;;;;4958858;28;20057;-92
2022/05/16 03:20:04;;;;;;;9.18;5.38;;;13.10;99.90;;;;;;4967651;28;20022;-91
2022/05/16 03:22:31;;;;;;;12.98;5.75;;;13.30;99.90;;;;;;4959220;28;20027;-92
2022/05/16 03:24:56;;;;;;;9.38;5.13;;;13.30;99.90;;;;;;4965037;28;20019;-93
2022/05/16 03:27:22;;;;;;;13.65;5.90;;;13.30;99.90;;;;;;4959595;28;20073;-90
2022/05/16 03:29:49;;;;;;;8.88;4.80;;;13.30;99.90;;;;;;4960923;28;20023;-91
2022/05/16 03:32:15;;;;;;;7.93;4.93;;;13.30;99.90;;;;;;4982544;28;20022;-95
2022/05/16 03:34:41;;;;;;;10.48;5.32;;;13.20;99.90;;;;;;4982983;28;20018;-95
2022/05/16 03:37:07;;;;;;;7.53;4.63;;;13.20;99.90;;;;;;4981343;28;20035;-96
2022/05/16 03:42:21;;;;;;;7.20;4.45;;;13.10;99.90;;;;;;4990743;22;20050;-76
2022/05/16 03:44:47;;;;;;;8.65;3.95;;;13.10;99.90;;;;;;4954062;28;20027;-76
2022/05/16 03:47:12;;;;;;;8.38;4.40;;;13.00;99.90;;;;;;4936994;28;20421;-76
2022/05/16 03:49:38;;;;;;;8.60;4.25;;;13.10;99.90;;;;;;4953964;28;20382;-77
2022/05/16 03:52:04;;;;;;;9.80;3.53;;;13.00;99.90;;;;;;4960298;28;20059;-77
2022/05/16 03:54:29;;;;;;;7.80;3.78;;;13.00;99.90;;;;;;4952844;28;20039;-77
2022/05/16 03:56:55;;;;;;;9.55;3.55;;;13.00;99.90;;;;;;4952240;28;20066;-76
2022/05/16 03:59:21;;;;;;;8.95;3.70;;;13.00;99.90;;;;;;4948145;28;20038;-76
2022/05/16 04:01:49;;;;;;;10.25;3.70;;;13.00;99.90;;;;;;4933422;29;20066;-77
2022/05/16 04:04:16;;;;;;;10.20;3.95;;;13.10;99.90;;;;;;4952515;28;20476;-76
2022/05/16 04:06:41;;;;;;;7.15;3.30;;;13.00;99.90;;;;;;4953037;29;20023;-76
2022/05/16 04:09:07;;;;;;;7.05;3.33;;;13.00;99.90;;;;;;4952303;28;20019;-76
2022/05/16 04:11:34;;;;;;;5.60;3.05;;;13.00;99.90;;;;;;4952453;28;20027;-76
2022/05/16 04:14:01;;;;;;;10.30;4.18;;;13.00;99.90;;;;;;4952470;28;20011;-77
2022/05/16 04:16:26;;;;;;;9.05;3.55;;;12.90;99.90;;;;;;4952616;28;20085;-76
2022/05/16 04:18:52;;;;;;;8.43;3.08;;;13.00;99.90;;;;;;4952399;28;20384;-76
2022/05/16 04:21:18;;;;;;;7.82;3.70;;;12.90;99.90;;;;;;4951758;28;20423;-76
2022/05/16 04:23:43;;;;;;;10.38;3.42;;;12.90;99.90;;;;;;4952153;28;20026;-76
2022/05/16 04:26:09;;;;;;;14.73;3.55;;;12.90;99.90;;;;;;4952385;28;20573;-76
2022/05/16 04:28:35;;;;;;;12.05;5.28;;;12.90;99.90;;;;;;4952459;29;20023;-77
2022/05/16 04:31:01;;;;;;;7.53;3.65;;;13.00;99.90;;;;;;4930204;29;20026;-76
2022/05/16 04:33:27;;;;;;;8.00;2.97;;;13.00;99.90;;;;;;4934790;28;20489;-76
2022/05/16 04:35:52;;;;;;;5.50;2.83;;;13.10;99.90;;;;;;4952450;28;20031;-75
2022/05/16 04:38:18;;;;;;;6.72;3.20;;;13.30;99.90;;;;;;4952382;28;20031;-76
2022/05/16 04:43:28;;;;;;;17.30;5.15;;;13.50;99.90;;;;;;4975404;23;20508;-85
2022/05/16 04:45:54;;;;;;;10.55;6.00;;;13.60;99.90;;;;;;4936483;28;20026;-83
2022/05/16 04:48:19;;;;;;;13.60;7.00;;;13.60;99.90;;;;;;4954298;28;20473;-85
2022/05/16 04:50:45;;;;;;;18.13;7.95;;;13.60;99.90;;;;;;4953639;28;20086;-82
2022/05/16 04:53:11;;;;;;;23.20;8.75;;;13.70;99.90;;;;;;4952785;29;20050;-82
2022/05/16 04:55:36;;;;;;;18.75;9.40;;;13.70;99.90;;;;;;4953119;29;20027;-80
2022/05/16 04:58:02;;;;;;;15.75;9.13;;;13.80;99.90;;;;;;4952512;28;20427;-84
2022/05/16 05:00:28;;;;;;;31.90;11.45;;;13.80;99.90;;;;;;4946372;28;20023;-83
2022/05/16 05:02:54;;;;;;;25.83;12.85;;;13.90;99.90;;;;;;4952839;29;20106;-85
2022/05/16 05:05:20;;;;;;;32.72;13.90;;;14.00;99.90;;;;;;4953645;29;20165;-85
2022/05/16 05:07:46;;;;;;;29.02;14.70;;;14.00;99.90;;;;;;4953824;29;20603;-88
2022/05/16 05:15:57;;;;;;;33.05;15.20;;;14.20;99.90;;;;;;4953406;29;20037;-86
2022/05/16 05:18:22;;;;;;;;;;;14.20;99.90;;;;;;4953634;29;20063;-86
2022/05/16 05:20:48;;;;;;;33.15;14.82;;;14.20;99.90;;;;;;4936545;29;20319;-88
2022/05/16 05:23:14;;;;;;;31.40;14.60;;;14.20;99.90;;;;;;4937013;29;20023;-85
2022/05/16 05:25:39;;;;;;;27.17;14.98;;;14.20;99.90;;;;;;4954218;29;20030;-85
2022/05/16 05:28:05;;;;;;;29.85;15.23;;;14.20;99.90;;;;;;4953876;28;20070;-88
2022/05/16 05:30:32;;;;;;;29.95;15.75;;;14.20;99.90;;;;;;4954005;29;20388;-87
2022/05/16 05:32:59;;;;;;;32.20;14.77;;;14.30;99.90;;;;;;4942743;28;20058;-85
2022/05/16 05:35:25;;;;;;;27.73;15.90;;;14.20;99.90;;;;;;4956728;28;20035;-85
2022/05/16 05:37:54;;;;;;;23.90;14.93;;;14.30;99.90;;;;;;4956208;29;20035;-85
2022/05/16 05:40:20;;;;;;;26.70;14.48;;;14.30;99.90;;;;;;4956259;28;20778;-82
2022/05/16 05:42:46;;;;;;;26.50;12.73;;;14.30;99.90;;;;;;4965534;23;20051;-89
2022/05/16 05:45:12;;;;;;;20.08;11.55;;;14.40;99.90;;;;;;4964708;28;20023;-92
2022/05/16 05:47:38;;;;;;;25.08;11.60;;;14.40;99.90;;;;;;4940634;29;20131;-88
2022/05/16 05:50:06;;;;;;;27.50;12.50;;;14.40;99.90;;;;;;4940305;28;20125;-93
2022/05/16 05:52:32;;;;;;;25.45;11.63;;;14.50;99.90;;;;;;4964583;28;20027;-90
2022/05/16 05:54:58;;;;;;;16.15;9.05;;;14.50;99.90;;;;;;4940627;28;20034;-92
2022/05/16 05:57:25;;;;;;;17.67;9.48;;;14.60;99.90;;;;;;4940839;28;20073;-92
2022/05/16 05:59:55;;;;;;;18.27;9.48;;;14.60;99.90;;;;;;4944738;28;20134;-91
2022/05/16 06:02:21;;;;;;;19.08;11.40;;;14.50;99.90;;;;;;4939934;28;20031;-89
2022/05/16 06:04:47;;;;;;;26.20;11.43;;;14.40;99.90;;;;;;4940182;28;20027;-91
2022/05/16 06:07:14;;;;;;;19.40;9.18;;;14.40;99.90;;;;;;4940024;28;20051;-89
2022/05/16 06:09:41;;;;;;;13.90;8.93;;;14.40;99.90;;;;;;4939825;28;20023;-88
2022/05/16 06:12:07;;;;;;;20.02;9.35;;;14.40;99.90;;;;;;4956815;28;20016;-92
2022/05/16 06:14:34;;;;;;;19.17;8.95;;;14.40;99.90;;;;;;4956422;28;20047;-88
2022/05/16 06:16:59;;;;;;;20.27;9.38;;;14.50;99.90;;;;;;4939345;28;20090;-88
2022/05/16 06:19:26;;;;;;;18.45;8.93;;;14.50;99.90;;;;;;4938839;28;20023;-85
2022/05/16 06:21:51;;;;;;;17.25;9.13;;;14.60;99.90;;;;;;4955597;28;20118;-88
2022/05/16 06:27:02;;;;;;;21.38;9.05;;;14.70;99.90;;;;;;4952494;28;20392;-85
2022/05/16 06:29:28;;;;;;;18.55;8.48;;;14.80;99.90;;;;;;4957822;28;20077;-85
2022/05/16 06:31:54;;;;;;;24.33;9.30;;;14.80;99.90;;;;;;4955890;28;20616;-85
2022/05/16 06:34:20;;;;;;;19.00;7.60;;;14.80;99.90;;;;;;4954632;28;20046;-86
2022/05/16 06:36:46;;;;;;;18.10;7.82;;;14.80;99.90;;;;;;4948616;28;20050;-85
2022/05/16 06:39:12;;;;;;;18.92;7.03;;;14.80;99.90;;;;;;4955631;28;20060;-86
2022/05/16 06:41:38;;;;;;;9.95;5.68;;;14.90;99.90;;;;;;4975271;23;20373;-75
2022/05/16 06:44:04;;;;;;;18.27;6.03;;;15.00;99.90;;;;;;4951871;28;20168;-77
2022/05/16 06:46:30;;;;;;;13.10;6.22;;;15.00;99.90;;;;;;4955311;28;20362;-76
2022/05/16 06:48:56;;;;;;;16.60;6.13;;;15.00;99.90;;;;;;4954865;28;20047;-77
2022/05/16 06:51:21;;;;;;;9.65;5.50;;;15.00;99.90;;;;;;4955196;28;20023;-77
2022/05/16 06:53:47;;;;;;;16.83;5.47;;;15.00;99.90;;;;;;4961876;28;20018;-77
2022/05/16 06:56:13;;;;;;;14.18;6.78;;;15.00;99.90;;;;;;4955281;28;20086;-76
2022/05/16 06:58:39;;;;;;;16.88;5.07;;;14.90;99.90;;;;;;4954790;28;20495;-76
2022/05/16 07:01:05;;;;;;;14.95;4.68;;;15.00;99.90;;;;;;4953853;28;20035;-77
2022/05/16 07:03:32;;;;;;;14.32;5.07;;;15.00;99.90;;;;;;4954526;28;20037;-79
2022/05/16 07:05:58;;;;;;;9.38;4.60;;;15.00;99.90;;;;;;4954651;28;20465;-77
2022/05/16 07:08:25;;;;;;;14.27;5.40;;;15.20;99.90;;;;;;4954862;28;20078;-80
2022/05/16 07:10:51;;;;;;;14.38;5.15;;;15.20;99.90;;;;;;4954804;28;20019;-79
2022/05/16 07:13:17;;;;;;;13.93;4.40;;;15.30;99.90;;;;;;4954920;28;20022;-79
2022/05/16 07:15:43;;;;;;;13.50;4.90;;;15.40;99.90;;;;;;4954264;28;20032;-80
2022/05/16 07:18:09;;;;;;;12.07;4.55;;;15.40;99.90;;;;;;4954242;28;20028;-79
2022/05/16 07:20:35;;;;;;;12.10;4.47;;;15.50;99.90;;;;;;4954033;28;20496;-79
2022/05/16 07:23:02;;;;;;;16.58;5.55;;;15.60;99.90;;;;;;4954041;28;20106;-79
2022/05/16 07:25:29;;;;;;;14.10;4.88;;;15.70;99.90;;;;;;4954169;28;20542;-79
2022/05/16 07:27:59;;;;;;;11.73;4.47;;;15.80;99.90;;;;;;4953786;28;20046;-79
2022/05/16 07:30:31;;;;;;;12.93;4.43;;;15.90;99.90;;;;;;4952929;28;20039;-79
2022/05/16 07:32:58;;;;;;;10.20;3.97;;;15.90;99.90;;;;;;4954008;28;20077;-80
2022/05/16 07:35:31;;;;;;;10.75;3.80;;;16.10;99.90;;;;;;4953073;28;20497;-79
2022/05/16 07:37:58;;;;;;;13.88;3.95;;;16.20;99.90;;;;;;4954158;28;20065;-79
2022/05/16 07:40:26;;;;;;;8.52;3.58;;;16.30;99.90;;;;;;4960748;28;20366;-78
2022/05/16 07:42:53;;;;;;;11.63;3.78;;;16.30;99.90;;;;;;4972571;23;20097;-79
2022/05/16 07:45:20;;;;;;;12.45;4.22;;;16.20;99.90;;;;;;4973448;28;20046;-80
2022/05/16 07:47:46;;;;;;;12.32;3.83;;;16.30;99.90;;;;;;4973544;28;20027;-78
2022/05/16 07:50:12;;;;;;;11.90;3.80;;;16.40;99.90;;;;;;4973304;28;20487;-78
2022/05/16 07:52:41;;;;;;;9.40;4.43;;;16.60;99.90;;;;;;4973323;28;20573;-78
2022/05/16 07:55:07;;;;;;;8.68;3.00;;;16.90;99.90;;;;;;4973228;28;20018;-79
2022/05/16 07:57:33;;;;;;;14.60;3.78;;;17.10;99.90;;;;;;4972530;28;20538;-79
2022/05/16 07:59:59;;;;;;;23.42;4.32;;;16.90;99.90;;;;;;4971345;28;20547;-78
2022/05/16 08:02:25;;;;;;;13.10;3.65;;;16.80;99.90;;;;;;4973146;28;20106;-78
2022/05/16 08:04:51;;;;;;;12.38;3.92;;;16.80;99.90;;;;;;4973468;28;20057;-78
2022/05/16 08:07:17;;;;;;;10.63;3.63;;;16.80;99.90;;;;;;4973165;28;20023;-78
2022/05/16 08:12:32;;;;;;;7.32;3.20;;;17.00;99.90;;;;;;4972946;28;20037;-79
2022/05/16 08:15:00;;;;;;;9.88;2.83;;;17.10;99.90;;;;;;4972596;28;20033;-78
2022/05/16 08:17:26;;;;;;;9.77;3.30;;;16.90;99.90;;;;;;4965991;28;20484;-78
2022/05/16 08:19:52;;;;;;;10.80;3.10;;;16.90;99.90;;;;;;4973258;28;20050;-79
2022/05/16 08:22:18;;;;;;;11.32;3.33;;;17.00;99.90;;;;;;4972871;28;20029;-78
2022/05/16 08:24:45;;;;;;;12.95;4.32;;;17.00;99.90;;;;;;4972443;28;20061;-78
2022/05/16 08:27:10;;;;;;;11.70;3.20;;;17.10;99.90;;;;;;4972974;28;20098;-78
2022/05/16 08:29:36;;;;;;;6.90;2.65;;;17.40;99.90;;;;;;4972683;28;20126;-79
2022/05/16 08:32:03;;;;;;;7.50;2.88;;;17.70;99.90;;;;;;4972800;28;20019;-79
2022/05/16 08:34:30;;;;;;;8.18;3.08;;;18.10;99.90;;;;;;4972424;28;20860;-78
2022/05/16 08:39:52;;;;;;;14.77;3.10;;;18.70;99.90;;;;;;4973017;28;20506;-77
2022/05/16 08:42:23;;;;;;;9.98;3.08;;;18.80;99.90;;;;;;4998879;23;20053;-81
2022/05/16 08:44:56;;;;;;;10.80;3.08;;;18.60;99.90;;;;;;5024895;28;20444;-82
2022/05/16 08:47:47;;;;;;;6.43;2.50;;;18.60;99.90;;;;;;5031646;28;20048;-82
2022/05/16 08:50:19;;;;;;;10.57;3.83;;;18.40;99.90;;;;;;5019184;28;20038;-82
2022/05/16 08:52:55;;;;;;;12.93;2.55;;;18.40;99.90;;;;;;5021486;28;20093;-82
2022/05/16 08:55:44;;;;;;;11.45;3.33;;;18.40;99.90;;;;;;5011963;28;20374;-83
2022/05/16 08:58:40;;;;;;;8.90;2.58;;;18.90;99.90;;;;;;5011460;28;20087;-81
2022/05/16 09:01:47;;;;;;;8.77;2.47;;;19.20;99.90;;;;;;5000147;28;20030;-82
2022/05/16 09:04:37;;;;;;;7.72;2.42;;;19.50;99.90;;;;;;5007506;28;20033;-81
2022/05/16 09:07:09;;;;;;;10.43;2.10;;;19.20;99.90;;;;;;5013512;28;20022;-80
2022/05/16 09:09:43;;;;;;;8.52;2.20;;;18.80;99.90;;;;;;5015707;28;20025;-81
2022/05/16 09:12:25;;;;;;;6.63;2.35;;;18.90;99.90;;;;;;5015581;28;20021;-80
2022/05/16 09:14:52;;;;;;;9.68;3.22;;;19.20;99.90;;;;;;5015466;28;20018;-81
2022/05/16 09:17:48;;;;;;;5.53;2.47;;;18.90;99.90;;;;;;5015467;28;20026;-81
2022/05/16 09:20:48;;;;;;;8.05;2.63;;;18.80;99.90;;;;;;5009096;28;20113;-80
2022/05/16 09:23:35;;;;;;;12.15;2.58;;;18.90;99.90;;;;;;5015381;28;20418;-82
2022/05/16 09:26:08;;;;;;;12.93;2.90;;;19.00;99.90;;;;;;5015536;28;20060;-82
2022/05/16 09:28:43;;;;;;;5.07;2.00;;;19.60;99.90;;;;;;5014704;28;20018;-81
2022/05/16 09:31:13;;;;;;;14.35;2.40;;;19.70;99.90;;;;;;5009111;28;20029;-81
2022/05/16 09:33:47;;;;;;;12.02;2.70;;;19.70;99.90;;;;;;4997629;28;20054;-80
2022/05/16 09:36:18;;;;;;;10.68;2.45;;;19.20;99.90;;;;;;4997775;28;20394;-78
2022/05/16 09:38:46;;;;;;;3.92;1.90;;;19.20;99.90;;;;;;5015211;28;20088;-81
2022/05/16 09:41:26;;;;;;;8.15;2.00;;;19.20;99.90;;;;;;4997552;28;20455;-80
2022/05/16 09:43:58;;;;;;;9.00;2.00;;;18.90;99.90;;;;;;4996618;23;20046;-77
2022/05/16 09:46:44;;;;;;;9.07;2.30;;;18.70;99.90;;;;;;4964564;28;20027;-78
2022/05/16 09:49:13;;;;;;;6.65;2.05;;;18.40;99.90;;;;;;4957188;28;20025;-78
2022/05/16 09:52:01;;;;;;;12.13;2.38;;;18.20;99.90;;;;;;4958634;28;20026;-77
2022/05/16 09:54:37;;;;;;;6.85;3.28;;;18.10;99.90;;;;;;4955276;28;20027;-77
2022/05/16 09:57:03;;;;;;;9.27;2.35;;;17.90;99.90;;;;;;4954995;28;20488;-77
2022/05/16 09:59:42;;;;;;;12.23;2.60;;;17.90;99.90;;;;;;4949928;28;20504;-76
2022/05/16 10:02:11;;;;;;;5.53;2.33;;;17.80;99.90;;;;;;4950258;28;20023;-78
2022/05/16 10:04:44;;;;;;;4.78;1.58;;;17.80;99.90;;;;;;4955030;28;20054;-77
2022/05/16 10:07:10;;;;;;;12.30;2.33;;;18.00;99.90;;;;;;4955123;28;20030;-76
2022/05/16 10:09:47;;;;;;;10.27;2.45;;;18.10;99.90;;;;;;4954779;28;20039;-77
2022/05/16 10:12:17;;;;;;;6.43;2.00;;;18.30;99.90;;;;;;4937564;29;20130;-77
2022/05/16 10:14:44;;;;;;;5.83;1.87;;;19.00;99.90;;;;;;4942413;29;20011;-77
2022/05/16 10:17:15;;;;;;;10.15;1.70;;;19.80;99.90;;;;;;4954397;28;20027;-76
2022/05/16 10:19:42;;;;;;;9.57;1.92;;;20.20;99.90;;;;;;4953568;29;20031;-77
2022/05/16 10:22:18;;;;;;;6.43;1.85;;;20.20;99.90;;;;;;4955025;29;20063;-77
2022/05/16 10:24:52;;;;;;;7.47;1.80;;;20.90;99.90;;;;;;4925533;29;20463;-77
2022/05/16 10:27:28;;;;;;;7.63;1.63;;;20.90;99.90;;;;;;4954637;29;20026;-78
2022/05/16 10:29:57;;;;;;;11.32;1.85;;;21.50;99.90;;;;;;4950871;29;20690;-76
2022/05/16 10:35:24;;;;;;;8.00;2.33;;;22.30;99.90;;;;;;4954669;29;20062;-76
2022/05/16 10:37:53;;;;;;;10.00;1.77;;;22.70;99.90;;;;;;4953941;29;20106;-76
2022/05/16 10:40:40;;;;;;;6.45;1.85;;;22.70;99.80;;;;;;4954567;29;20035;-77
2022/05/16 10:43:15;;;;;;;11.80;1.80;;;22.80;99.90;;;;;;4997842;23;20042;-80
2022/05/16 10:45:47;;;;;;;9.77;1.90;;;23.40;99.20;;;;;;5027660;28;20104;-81
2022/05/16 10:48:14;;;;;;;5.47;1.33;;;23.20;97.50;;;;;;5033628;28;20017;-79
2022/05/16 10:50:47;;;;;;;8.50;2.13;;;22.70;98.10;;;;;;5033454;28;20028;-79
2022/05/16 10:53:19;;;;;;;7.82;1.88;;;22.40;99.60;;;;;;5020383;28;20101;-79
2022/05/16 10:56:24;;;;;;;8.43;1.92;;;22.80;98.90;;;;;;5013546;28;20483;-79
2022/05/16 10:59:06;;;;;;;6.35;1.98;;;23.30;97.70;;;;;;5009983;28;20049;-80
2022/05/16 11:01:42;;;;;;;3.63;1.42;;;23.50;95.90;;;;;;5013022;28;20030;-80
2022/05/16 11:04:30;;;;;;;6.88;1.85;;;23.80;95.40;;;;;;4996265;28;20391;-80
2022/05/16 11:07:20;;;;;;;7.38;1.80;;;23.90;95.00;;;;;;4995988;28;20026;-79
2022/05/16 11:10:01;;;;;;;5.97;1.90;;;24.30;93.60;;;;;;4995718;28;20021;-79
2022/05/16 11:12:43;;;;;;;6.00;1.48;;;24.10;94.70;;;;;;5011544;28;20101;-81
2022/05/16 11:15:35;;;;;;;10.10;1.88;;;24.40;93.00;;;;;;5013143;28;20022;-80
2022/05/16 11:18:43;;;;;;;7.35;1.30;;;26.10;91.00;;;;;;5013089;28;20368;-81
2022/05/16 11:21:39;;;;;;;6.47;2.20;;;26.40;83.00;;;;;;4907877;29;20023;-79
2022/05/16 11:24:11;;;;;;;8.07;1.83;;;25.10;86.90;;;;;;5009601;28;20049;-81
2022/05/16 11:26:42;;;;;;;;;;;24.40;88.40;;;;;;5013383;28;20022;-80
2022/05/16 11:29:26;;;;;;;9.40;1.63;;;24.10;90.50;;;;;;5001740;28;19905;-80
2022/05/16 11:31:55;;;;;;;7.18;1.60;;;23.60;91.30;;;;;;5012706;28;20065;-81
2022/05/16 11:34:45;;;;;;;4.60;1.40;;;23.40;92.30;;;;;;5012956;28;20072;-79
2022/05/16 11:37:32;;;;;;;3.42;1.20;;;22.70;93.70;;;;;;5012433;28;20576;-79
2022/05/16 11:40:33;;;;;;;5.88;1.63;;;22.70;94.20;;;;;;4994901;28;20026;-80
2022/05/16 11:43:11;;;;;;;5.30;1.42;;;23.10;93.70;;;;;;4986017;23;20047;-77
2022/05/16 11:45:57;;;;;;;7.57;1.80;;;24.30;94.50;;;;;;4935246;29;20031;-78
2022/05/16 11:48:43;;;;;;;8.18;2.28;;;25.90;89.50;;;;;;4929741;29;20071;-78
2022/05/16 11:51:26;;;;;;;10.75;1.42;;;26.90;82.50;;;;;;4929738;29;20027;-77
2022/05/16 11:53:57;;;;;;;3.75;1.00;;;27.30;76.90;;;;;;4930036;29;20024;-78
2022/05/16 12:02:33;;;;;;;6.90;1.58;;;28.60;70.10;;;;;;4917849;29;20043;-78
2022/05/16 12:05:01;;;;;;;3.47;1.25;;;27.80;71.50;;;;;;4934758;29;20027;-78
2022/05/16 12:07:32;;;;;;;5.45;1.33;;;27.80;69.90;;;;;;4934710;29;20024;-77
2022/05/16 12:10:29;;;;;;;5.03;1.45;;;27.70;70.00;;;;;;4941549;29;20052;-78
2022/05/16 12:13:29;;;;;;;4.32;1.65;;;28.30;68.80;;;;;;4929219;29;20020;-78
2022/05/16 12:16:12;;;;;;;5.22;1.23;;;30.20;69.10;;;;;;4931522;29;20027;-79
2022/05/16 12:18:45;;;;;;;4.70;1.20;;;30.30;61.80;;;;;;4933501;29;20042;-77
2022/05/16 12:21:37;;;;;;;3.35;0.70;;;30.40;61.50;;;;;;4934649;29;20024;-77
2022/05/16 12:24:27;;;;;;;6.40;1.10;;;29.30;61.20;;;;;;4934778;29;20051;-78
2022/05/16 12:26:58;;;;;;;8.30;1.67;;;29.80;60.30;;;;;;4933192;29;20036;-78
2022/05/16 12:29:31;;;;;;;4.57;1.08;;;29.50;59.40;;;;;;4936288;29;20050;-77
2022/05/16 12:31:57;;;;;;;5.30;1.02;;;28.90;61.10;;;;;;4928789;29;20031;-78
2022/05/16 12:34:29;;;;;;;8.02;1.33;;;29.10;61.90;;;;;;4934644;29;20024;-77
2022/05/16 12:36:59;;;;;;;;;;;29.10;59.80;;;;;;4933278;29;20034;-78
2022/05/16 12:39:43;;;;;;;3.50;1.17;;;29.70;61.50;;;;;;4933116;29;19978;-78
2022/05/16 12:42:33;;;;;;;4.47;0.88;;;29.80;59.50;;;;;;4958136;23;20000;-80
2022/05/16 12:45:02;;;;;;;5.22;1.10;;;29.50;59.70;;;;;;4954234;28;20053;-80
2022/05/16 12:47:33;;;;;;;3.30;0.80;;;30.00;61.20;;;;;;4972657;28;20049;-80
2022/05/16 12:50:25;;;;;;;5.32;1.05;;;30.40;57.80;;;;;;4962111;28;20030;-81
2022/05/16 12:53:12;;;;;;;5.57;0.90;;;30.50;57.10;;;;;;4966951;28;20091;-80
2022/05/16 12:56:09;;;;;;;6.72;1.00;;;29.80;56.50;;;;;;4955524;28;20023;-80
2022/05/16 12:59:10;;;;;;;5.97;0.95;;;31.40;57.40;;;;;;4969096;28;20030;-80
2022/05/16 13:01:40;;;;;;;5.32;1.05;;;32.40;53.50;;;;;;4935843;28;20633;-80
2022/05/16 13:04:21;;;;;;;2.28;0.70;;;33.50;50.90;;;;;;4972351;28;20172;-80
2022/05/16 13:07:03;;;;;;;4.47;0.70;;;34.10;48.30;;;;;;4955039;28;20030;-79
2022/05/16 13:09:42;;;;;;;3.72;0.80;;;32.50;49.00;;;;;;4972614;28;20126;-80
2022/05/16 13:12:23;;;;;;;5.65;0.82;;;32.30;48.70;;;;;;4972416;28;20019;-79
2022/05/16 13:15:01;;;;;;;;;;;30.30;52.10;;;;;;4972573;28;20510;-79
2022/05/16 13:17:40;;;;;;;8.18;0.90;;;29.30;55.30;;;;;;4972469;28;20379;-80
2022/05/16 13:20:30;;;;;;;3.50;1.00;;;28.40;55.90;;;;;;4972573;28;20468;-80
2022/05/16 13:22:57;;;;;;;7.65;1.30;;;28.10;60.00;;;;;;4964140;28;20057;-80
2022/05/16 13:25:25;;;;;;;4.90;1.05;;;28.80;55.50;;;;;;4972535;28;20138;-80
2022/05/16 13:30:43;;;;;;;6.03;1.52;;;29.00;55.70;;;;;;4972612;28;20119;-80
2022/05/16 13:33:28;;;;;;;3.35;0.90;;;30.70;55.50;;;;;;4972255;28;20102;-80
2022/05/16 13:35:54;;;;;;;6.97;1.40;;;30.90;51.90;;;;;;4955024;28;20053;-81
2022/05/16 13:38:20;;;;;;;5.55;1.00;;;30.30;52.60;;;;;;4972149;28;20035;-79
2022/05/16 13:40:48;;;;;;;5.53;1.10;;;30.60;53.40;;;;;;4972490;28;20027;-79